sensor_id;sensor_type;location;lat;lon;timestamp;P1;durP1;ratioP1;P2;durP2;ratioP2
23722;SDS011;12042;52.136;5.584;2023-02-15T06:52:43;67.78;;;33.45;;
23722;SDS011;12042;52.136;5.584;2023-02-15T06:55:09;68.80;;;33.47;;
23722;SDS011;12042;52.136;5.584;2023-02-15T06:57:34;61.95;;;32.10;;
23722;SDS011;12042;52.136;5.584;2023-02-15T07:00:01;59.20;;;31.23;;
23722;SDS011;12042;52.136;5.584;2023-02-15T07:02:29;64.32;;;33.95;;
23722;SDS011;12042;52.136;5.584;2023-02-15T07:04:56;65.57;;;33.75;;
23722;SDS011;12042;52.136;5.584;2023-02-15T07:07:22;65.22;;;33.90;;
23722;SDS011;12042;52.136;5.584;2023-02-15T07:09:48;72.60;;;36.17;;
23722;SDS011;12042;52.136;5.584;2023-02-15T07:12:13;74.03;;;39.47;;
23722;SDS011;12042;52.136;5.584;2023-02-15T07:14:58;78.30;;;39.42;;
23722;SDS011;12042;52.136;5.584;2023-02-15T07:17:23;83.00;;;40.55;;
23722;SDS011;12042;52.136;5.584;2023-02-15T07:19:53;88.60;;;42.03;;
23722;SDS011;12042;52.136;5.584;2023-02-15T07:22:19;88.88;;;43.70;;
23722;SDS011;12042;52.136;5.584;2023-02-15T07:24:45;101.10;;;45.53;;
23722;SDS011;12042;52.136;5.584;2023-02-15T07:27:12;94.30;;;45.38;;
23722;SDS011;12042;52.136;5.584;2023-02-15T07:29:37;97.25;;;47.47;;
23722;SDS011;12042;52.136;5.584;2023-02-15T07:32:03;97.03;;;47.78;;
23722;SDS011;12042;52.136;5.584;2023-02-15T07:34:29;107.57;;;49.38;;
23722;SDS011;12042;52.136;5.584;2023-02-15T07:36:54;101.40;;;46.92;;
23722;SDS011;12042;52.136;5.584;2023-02-15T07:39:20;99.82;;;48.13;;
23722;SDS011;12042;52.136;5.584;2023-02-15T07:41:45;101.03;;;47.45;;
23722;SDS011;12042;52.136;5.584;2023-02-15T07:44:12;102.07;;;48.78;;
23722;SDS011;12042;52.136;5.584;2023-02-15T07:46:38;99.90;;;48.28;;
23722;SDS011;12042;52.136;5.584;2023-02-15T07:49:04;97.50;;;46.92;;
23722;SDS011;12042;52.136;5.584;2023-02-15T07:51:29;92.63;;;45.33;;
23722;SDS011;12042;52.136;5.584;2023-02-15T07:53:55;96.15;;;47.28;;
23722;SDS011;12042;52.136;5.584;2023-02-15T07:56:21;97.28;;;47.60;;
23722;SDS011;12042;52.136;5.584;2023-02-15T07:58:46;93.75;;;47.33;;
23722;SDS011;12042;52.136;5.584;2023-02-15T08:03:49;90.07;;;45.88;;
23722;SDS011;12042;52.136;5.584;2023-02-15T08:06:25;93.35;;;45.70;;
23722;SDS011;12042;52.136;5.584;2023-02-15T08:08:58;100.28;;;46.13;;
23722;SDS011;12042;52.136;5.584;2023-02-15T08:11:31;87.00;;;44.67;;
23722;SDS011;12042;52.136;5.584;2023-02-15T08:14:11;89.00;;;44.78;;
23722;SDS011;12042;52.136;5.584;2023-02-15T08:16:39;88.80;;;44.33;;
23722;SDS011;12042;52.136;5.584;2023-02-15T08:19:18;92.43;;;44.17;;
23722;SDS011;12042;52.136;5.584;2023-02-15T08:21:45;84.78;;;44.03;;
23722;SDS011;12042;52.136;5.584;2023-02-15T08:24:15;92.07;;;45.00;;
23722;SDS011;12042;52.136;5.584;2023-02-15T08:26:42;81.82;;;43.38;;
23722;SDS011;12042;52.136;5.584;2023-02-15T08:29:12;87.07;;;43.80;;
23722;SDS011;12042;52.136;5.584;2023-02-15T08:31:39;80.45;;;42.05;;
23722;SDS011;12042;52.136;5.584;2023-02-15T08:34:06;84.82;;;43.20;;
23722;SDS011;12042;52.136;5.584;2023-02-15T08:36:33;84.47;;;43.25;;
23722;SDS011;12042;52.136;5.584;2023-02-15T08:39:01;84.30;;;44.28;;
23722;SDS011;12042;52.136;5.584;2023-02-15T08:41:30;80.43;;;41.35;;
23722;SDS011;12042;52.136;5.584;2023-02-15T08:44:00;80.57;;;42.75;;
23722;SDS011;12042;52.136;5.584;2023-02-15T08:46:28;77.43;;;41.63;;
23722;SDS011;12042;52.136;5.584;2023-02-15T08:48:58;80.07;;;41.13;;
23722;SDS011;12042;52.136;5.584;2023-02-15T08:51:24;78.05;;;41.03;;
23722;SDS011;12042;52.136;5.584;2023-02-15T08:53:52;80.53;;;40.80;;
23722;SDS011;12042;52.136;5.584;2023-02-15T08:56:29;78.00;;;39.50;;
23722;SDS011;12042;52.136;5.584;2023-02-15T08:59:00;74.57;;;40.03;;
23722;SDS011;12042;52.136;5.584;2023-02-15T09:01:29;74.70;;;39.67;;
23722;SDS011;12042;52.136;5.584;2023-02-15T09:04:01;70.60;;;39.28;;
23722;SDS011;12042;52.136;5.584;2023-02-15T09:06:29;67.68;;;37.15;;
23722;SDS011;12042;52.136;5.584;2023-02-15T09:08:55;75.05;;;39.30;;
23722;SDS011;12042;52.136;5.584;2023-02-15T09:11:25;71.28;;;39.30;;
23722;SDS011;12042;52.136;5.584;2023-02-15T09:13:54;70.90;;;38.35;;
23722;SDS011;12042;52.136;5.584;2023-02-15T09:16:21;71.60;;;38.97;;
23722;SDS011;12042;52.136;5.584;2023-02-15T09:18:48;71.55;;;38.13;;
23722;SDS011;12042;52.136;5.584;2023-02-15T09:21:15;68.68;;;38.25;;
23722;SDS011;12042;52.136;5.584;2023-02-15T09:23:43;73.55;;;39.17;;
23722;SDS011;12042;52.136;5.584;2023-02-15T09:26:11;70.75;;;38.35;;
23722;SDS011;12042;52.136;5.584;2023-02-15T09:28:38;68.13;;;36.70;;
23722;SDS011;12042;52.136;5.584;2023-02-15T09:31:05;64.43;;;36.70;;
23722;SDS011;12042;52.136;5.584;2023-02-15T09:33:36;64.07;;;36.22;;
23722;SDS011;12042;52.136;5.584;2023-02-15T09:36:03;66.78;;;35.72;;
23722;SDS011;12042;52.136;5.584;2023-02-15T09:38:30;64.72;;;35.60;;
23722;SDS011;12042;52.136;5.584;2023-02-15T09:41:44;62.55;;;33.50;;
23722;SDS011;12042;52.136;5.584;2023-02-15T10:12:28;57.03;;;32.80;;
23722;SDS011;12042;52.136;5.584;2023-02-15T10:15:17;67.88;;;35.70;;
23722;SDS011;12042;52.136;5.584;2023-02-15T10:20:34;61.67;;;34.10;;
23722;SDS011;12042;52.136;5.584;2023-02-15T10:23:29;63.95;;;36.17;;
23722;SDS011;12042;52.136;5.584;2023-02-15T10:31:55;61.15;;;34.97;;
23722;SDS011;12042;52.136;5.584;2023-02-15T10:34:43;61.35;;;35.65;;
23722;SDS011;12042;52.136;5.584;2023-02-15T10:51:02;59.08;;;34.72;;
23722;SDS011;12042;52.136;5.584;2023-02-15T10:56:33;62.50;;;35.25;;
23722;SDS011;12042;52.136;5.584;2023-02-15T11:01:39;58.90;;;34.17;;
23722;SDS011;12042;52.136;5.584;2023-02-15T11:09:44;59.17;;;35.42;;
23722;SDS011;12042;52.136;5.584;2023-02-15T11:12:27;59.70;;;34.45;;
23722;SDS011;12042;52.136;5.584;2023-02-15T11:15:00;56.13;;;34.08;;
23722;SDS011;12042;52.136;5.584;2023-02-15T11:17:49;60.88;;;35.20;;
23722;SDS011;12042;52.136;5.584;2023-02-15T11:20:28;59.38;;;34.55;;
23722;SDS011;12042;52.136;5.584;2023-02-15T11:22:58;55.97;;;34.08;;
23722;SDS011;12042;52.136;5.584;2023-02-15T11:25:30;56.65;;;34.58;;
23722;SDS011;12042;52.136;5.584;2023-02-15T11:27:58;56.25;;;32.80;;
23722;SDS011;12042;52.136;5.584;2023-02-15T11:30:29;58.33;;;33.65;;
23722;SDS011;12042;52.136;5.584;2023-02-15T11:33:12;59.15;;;33.97;;
23722;SDS011;12042;52.136;5.584;2023-02-15T11:35:49;57.78;;;34.05;;
23722;SDS011;12042;52.136;5.584;2023-02-15T11:38:24;54.42;;;33.85;;
23722;SDS011;12042;52.136;5.584;2023-02-15T11:40:56;57.55;;;33.15;;
23722;SDS011;12042;52.136;5.584;2023-02-15T11:46:18;52.75;;;31.85;;
23722;SDS011;12042;52.136;5.584;2023-02-15T11:48:48;52.38;;;31.15;;
23722;SDS011;12042;52.136;5.584;2023-02-15T11:51:16;59.00;;;33.17;;
23722;SDS011;12042;52.136;5.584;2023-02-15T11:53:43;55.15;;;32.28;;
23722;SDS011;12042;52.136;5.584;2023-02-15T11:56:17;55.00;;;31.27;;
23722;SDS011;12042;52.136;5.584;2023-02-15T11:58:59;51.55;;;30.60;;
23722;SDS011;12042;52.136;5.584;2023-02-15T12:01:32;52.05;;;30.67;;
23722;SDS011;12042;52.136;5.584;2023-02-15T12:04:04;55.25;;;33.20;;
23722;SDS011;12042;52.136;5.584;2023-02-15T12:06:44;56.50;;;33.17;;
23722;SDS011;12042;52.136;5.584;2023-02-15T12:09:18;55.83;;;32.85;;
23722;SDS011;12042;52.136;5.584;2023-02-15T12:14:48;55.80;;;32.40;;
23722;SDS011;12042;52.136;5.584;2023-02-15T12:17:16;60.13;;;34.05;;
23722;SDS011;12042;52.136;5.584;2023-02-15T12:19:42;56.10;;;32.47;;
23722;SDS011;12042;52.136;5.584;2023-02-15T12:24:47;55.38;;;32.00;;
23722;SDS011;12042;52.136;5.584;2023-02-15T12:27:20;61.33;;;34.63;;
23722;SDS011;12042;52.136;5.584;2023-02-15T12:32:52;57.00;;;33.08;;
23722;SDS011;12042;52.136;5.584;2023-02-15T12:35:32;59.63;;;34.10;;
23722;SDS011;12042;52.136;5.584;2023-02-15T12:40:34;56.45;;;31.88;;
23722;SDS011;12042;52.136;5.584;2023-02-15T12:43:01;54.25;;;32.75;;
23722;SDS011;12042;52.136;5.584;2023-02-15T12:45:33;55.53;;;31.65;;
23722;SDS011;12042;52.136;5.584;2023-02-15T12:48:13;59.72;;;33.05;;
23722;SDS011;12042;52.136;5.584;2023-02-15T12:50:44;53.00;;;32.00;;
23722;SDS011;12042;52.136;5.584;2023-02-15T12:53:21;52.38;;;32.92;;
23722;SDS011;12042;52.136;5.584;2023-02-15T12:56:05;51.65;;;31.38;;
23722;SDS011;12042;52.136;5.584;2023-02-15T13:01:12;54.10;;;32.25;;
23722;SDS011;12042;52.136;5.584;2023-02-15T13:03:51;51.33;;;32.25;;
23722;SDS011;12042;52.136;5.584;2023-02-15T13:06:21;56.03;;;31.23;;
23722;SDS011;12042;52.136;5.584;2023-02-15T13:08:53;52.33;;;31.40;;
23722;SDS011;12042;52.136;5.584;2023-02-15T13:11:25;53.47;;;31.08;;
23722;SDS011;12042;52.136;5.584;2023-02-15T13:13:55;53.15;;;31.35;;
23722;SDS011;12042;52.136;5.584;2023-02-15T13:16:30;53.38;;;32.42;;
23722;SDS011;12042;52.136;5.584;2023-02-15T13:19:15;57.40;;;32.05;;
23722;SDS011;12042;52.136;5.584;2023-02-15T13:21:54;53.55;;;31.90;;
23722;SDS011;12042;52.136;5.584;2023-02-15T13:24:41;53.53;;;30.98;;
23722;SDS011;12042;52.136;5.584;2023-02-15T13:27:12;53.30;;;30.58;;
23722;SDS011;12042;52.136;5.584;2023-02-15T13:29:43;54.97;;;32.30;;
23722;SDS011;12042;52.136;5.584;2023-02-15T13:35:03;57.33;;;32.97;;
23722;SDS011;12042;52.136;5.584;2023-02-15T13:47:56;56.50;;;33.53;;
23722;SDS011;12042;52.136;5.584;2023-02-15T14:05:18;59.38;;;34.17;;
23722;SDS011;12042;52.136;5.584;2023-02-15T14:10:53;59.10;;;35.10;;
23722;SDS011;12042;52.136;5.584;2023-02-15T14:24:41;56.10;;;33.58;;
23722;SDS011;12042;52.136;5.584;2023-02-15T14:27:41;52.47;;;32.42;;
23722;SDS011;12042;52.136;5.584;2023-02-15T14:30:25;54.58;;;32.10;;
23722;SDS011;12042;52.136;5.584;2023-02-15T14:33:07;52.30;;;31.13;;
23722;SDS011;12042;52.136;5.584;2023-02-15T14:35:54;53.63;;;31.58;;
23722;SDS011;12042;52.136;5.584;2023-02-15T14:38:32;55.13;;;32.90;;
23722;SDS011;12042;52.136;5.584;2023-02-15T14:41:03;58.63;;;33.05;;
23722;SDS011;12042;52.136;5.584;2023-02-15T14:49:31;49.63;;;31.75;;
23722;SDS011;12042;52.136;5.584;2023-02-15T14:52:03;56.28;;;32.55;;
23722;SDS011;12042;52.136;5.584;2023-02-15T15:09:48;55.67;;;33.38;;
23722;SDS011;12042;52.136;5.584;2023-02-15T15:15:13;64.20;;;35.85;;
23722;SDS011;12042;52.136;5.584;2023-02-15T15:18:04;62.67;;;35.65;;
23722;SDS011;12042;52.136;5.584;2023-02-15T15:20:40;56.50;;;33.88;;
23722;SDS011;12042;52.136;5.584;2023-02-15T15:25:44;60.22;;;35.90;;
23722;SDS011;12042;52.136;5.584;2023-02-15T15:38:58;68.57;;;36.72;;
23722;SDS011;12042;52.136;5.584;2023-02-15T15:45:13;57.05;;;35.97;;
23722;SDS011;12042;52.136;5.584;2023-02-15T15:51:20;66.28;;;37.90;;
23722;SDS011;12042;52.136;5.584;2023-02-15T15:53:56;64.63;;;37.53;;
23722;SDS011;12042;52.136;5.584;2023-02-15T15:56:33;69.32;;;37.72;;
23722;SDS011;12042;52.136;5.584;2023-02-15T15:59:07;60.65;;;36.47;;
23722;SDS011;12042;52.136;5.584;2023-02-15T16:01:47;62.83;;;38.08;;
23722;SDS011;12042;52.136;5.584;2023-02-15T16:04:14;60.40;;;37.50;;
23722;SDS011;12042;52.136;5.584;2023-02-15T16:06:50;68.75;;;38.65;;
23722;SDS011;12042;52.136;5.584;2023-02-15T16:09:26;63.75;;;37.63;;
23722;SDS011;12042;52.136;5.584;2023-02-15T16:11:54;63.28;;;37.03;;
23722;SDS011;12042;52.136;5.584;2023-02-15T16:14:36;62.55;;;37.28;;
23722;SDS011;12042;52.136;5.584;2023-02-15T16:20:03;62.65;;;37.90;;
23722;SDS011;12042;52.136;5.584;2023-02-15T16:22:53;63.00;;;37.65;;
23722;SDS011;12042;52.136;5.584;2023-02-15T16:28:32;63.50;;;37.45;;
23722;SDS011;12042;52.136;5.584;2023-02-15T16:31:31;70.18;;;38.85;;
23722;SDS011;12042;52.136;5.584;2023-02-15T16:33:53;69.38;;;38.72;;
23722;SDS011;12042;52.136;5.584;2023-02-15T16:36:27;67.10;;;38.30;;
23722;SDS011;12042;52.136;5.584;2023-02-15T16:41:22;68.65;;;38.67;;
23722;SDS011;12042;52.136;5.584;2023-02-15T16:43:49;63.25;;;36.58;;
23722;SDS011;12042;52.136;5.584;2023-02-15T16:48:43;67.75;;;37.80;;
23722;SDS011;12042;52.136;5.584;2023-02-15T16:51:18;75.47;;;41.75;;
23722;SDS011;12042;52.136;5.584;2023-02-15T16:53:47;63.38;;;38.53;;
23722;SDS011;12042;52.136;5.584;2023-02-15T16:56:14;71.03;;;37.88;;
23722;SDS011;12042;52.136;5.584;2023-02-15T16:58:42;64.45;;;36.55;;
23722;SDS011;12042;52.136;5.584;2023-02-15T17:01:10;68.70;;;38.05;;
23722;SDS011;12042;52.136;5.584;2023-02-15T17:03:40;63.53;;;38.15;;
23722;SDS011;12042;52.136;5.584;2023-02-15T17:06:22;64.15;;;37.13;;
23722;SDS011;12042;52.136;5.584;2023-02-15T17:08:51;62.85;;;36.60;;
23722;SDS011;12042;52.136;5.584;2023-02-15T17:11:17;65.85;;;36.80;;
23722;SDS011;12042;52.136;5.584;2023-02-15T17:16:32;72.78;;;37.53;;
23722;SDS011;12042;52.136;5.584;2023-02-15T17:19:08;67.03;;;37.55;;
23722;SDS011;12042;52.136;5.584;2023-02-15T17:21:49;63.72;;;37.22;;
23722;SDS011;12042;52.136;5.584;2023-02-15T17:27:05;66.68;;;38.35;;
23722;SDS011;12042;52.136;5.584;2023-02-15T17:29:47;70.22;;;38.38;;
23722;SDS011;12042;52.136;5.584;2023-02-15T17:32:21;64.80;;;37.83;;
23722;SDS011;12042;52.136;5.584;2023-02-15T17:40:10;66.43;;;37.72;;
23722;SDS011;12042;52.136;5.584;2023-02-15T17:42:52;64.57;;;37.45;;
23722;SDS011;12042;52.136;5.584;2023-02-15T17:45:18;66.78;;;37.58;;
23722;SDS011;12042;52.136;5.584;2023-02-15T17:47:45;68.47;;;37.20;;
23722;SDS011;12042;52.136;5.584;2023-02-15T17:50:17;63.30;;;37.83;;
23722;SDS011;12042;52.136;5.584;2023-02-15T17:52:52;67.38;;;36.58;;
23722;SDS011;12042;52.136;5.584;2023-02-15T17:55:23;65.13;;;37.42;;
23722;SDS011;12042;52.136;5.584;2023-02-15T17:58:08;60.63;;;37.22;;
23722;SDS011;12042;52.136;5.584;2023-02-15T18:00:39;70.88;;;37.45;;
23722;SDS011;12042;52.136;5.584;2023-02-15T18:03:45;66.13;;;37.30;;
23722;SDS011;12042;52.136;5.584;2023-02-15T18:06:31;73.20;;;40.33;;
23722;SDS011;12042;52.136;5.584;2023-02-15T18:09:18;69.63;;;39.08;;
23722;SDS011;12042;52.136;5.584;2023-02-15T18:12:26;68.40;;;38.05;;
23722;SDS011;12042;52.136;5.584;2023-02-15T18:14:54;64.53;;;37.70;;
23722;SDS011;12042;52.136;5.584;2023-02-15T18:17:32;66.00;;;38.17;;
23722;SDS011;12042;52.136;5.584;2023-02-15T18:19:57;66.20;;;38.20;;
23722;SDS011;12042;52.136;5.584;2023-02-15T18:22:25;64.40;;;36.75;;
23722;SDS011;12042;52.136;5.584;2023-02-15T18:24:53;65.93;;;37.58;;
23722;SDS011;12042;52.136;5.584;2023-02-15T18:27:19;61.88;;;37.75;;
23722;SDS011;12042;52.136;5.584;2023-02-15T18:29:45;67.75;;;40.17;;
23722;SDS011;12042;52.136;5.584;2023-02-15T18:32:17;74.22;;;41.47;;
23722;SDS011;12042;52.136;5.584;2023-02-15T18:34:50;77.75;;;41.90;;
23722;SDS011;12042;52.136;5.584;2023-02-15T18:37:20;75.97;;;42.67;;
23722;SDS011;12042;52.136;5.584;2023-02-15T18:39:46;70.80;;;41.42;;
23722;SDS011;12042;52.136;5.584;2023-02-15T18:42:27;78.10;;;43.60;;
23722;SDS011;12042;52.136;5.584;2023-02-15T18:45:24;75.40;;;42.55;;
23722;SDS011;12042;52.136;5.584;2023-02-15T18:47:53;73.38;;;41.72;;
23722;SDS011;12042;52.136;5.584;2023-02-15T18:50:19;71.47;;;41.17;;
23722;SDS011;12042;52.136;5.584;2023-02-15T18:52:46;77.70;;;42.72;;
23722;SDS011;12042;52.136;5.584;2023-02-15T18:57:45;69.25;;;40.83;;
23722;SDS011;12042;52.136;5.584;2023-02-15T19:00:22;85.60;;;45.15;;
23722;SDS011;12042;52.136;5.584;2023-02-15T19:02:49;70.78;;;41.42;;
23722;SDS011;12042;52.136;5.584;2023-02-15T19:05:15;74.05;;;42.90;;
23722;SDS011;12042;52.136;5.584;2023-02-15T19:07:45;76.10;;;43.83;;
23722;SDS011;12042;52.136;5.584;2023-02-15T19:10:15;80.40;;;43.38;;
23722;SDS011;12042;52.136;5.584;2023-02-15T19:12:45;77.57;;;43.03;;
23722;SDS011;12042;52.136;5.584;2023-02-15T19:18:09;81.95;;;43.85;;
23722;SDS011;12042;52.136;5.584;2023-02-15T19:23:02;72.97;;;41.85;;
23722;SDS011;12042;52.136;5.584;2023-02-15T19:25:38;72.97;;;41.05;;
23722;SDS011;12042;52.136;5.584;2023-02-15T19:28:07;77.80;;;42.72;;
23722;SDS011;12042;52.136;5.584;2023-02-15T19:30:39;74.18;;;41.50;;
23722;SDS011;12042;52.136;5.584;2023-02-15T19:33:04;72.70;;;40.63;;
23722;SDS011;12042;52.136;5.584;2023-02-15T19:35:31;79.10;;;41.42;;
23722;SDS011;12042;52.136;5.584;2023-02-15T19:38:00;70.68;;;40.63;;
23722;SDS011;12042;52.136;5.584;2023-02-15T19:40:30;75.90;;;41.25;;
23722;SDS011;12042;52.136;5.584;2023-02-15T19:42:58;70.28;;;39.67;;
23722;SDS011;12042;52.136;5.584;2023-02-15T19:45:25;81.82;;;40.63;;
23722;SDS011;12042;52.136;5.584;2023-02-15T19:47:53;73.80;;;39.50;;
23722;SDS011;12042;52.136;5.584;2023-02-15T19:50:28;76.78;;;39.83;;
23722;SDS011;12042;52.136;5.584;2023-02-15T19:52:55;74.28;;;40.75;;
23722;SDS011;12042;52.136;5.584;2023-02-15T19:55:25;74.70;;;40.42;;
23722;SDS011;12042;52.136;5.584;2023-02-15T19:57:53;74.53;;;39.80;;
23722;SDS011;12042;52.136;5.584;2023-02-15T20:00:21;70.85;;;39.22;;
23722;SDS011;12042;52.136;5.584;2023-02-15T20:02:49;69.60;;;37.38;;
23722;SDS011;12042;52.136;5.584;2023-02-15T20:05:16;71.40;;;39.78;;
23722;SDS011;12042;52.136;5.584;2023-02-15T20:07:46;69.20;;;39.70;;
23722;SDS011;12042;52.136;5.584;2023-02-15T20:10:14;70.57;;;39.47;;
23722;SDS011;12042;52.136;5.584;2023-02-15T20:12:41;72.07;;;40.20;;
23722;SDS011;12042;52.136;5.584;2023-02-15T20:15:29;75.53;;;40.28;;
23722;SDS011;12042;52.136;5.584;2023-02-15T20:17:55;75.60;;;41.40;;
23722;SDS011;12042;52.136;5.584;2023-02-15T20:20:23;76.35;;;40.42;;
23722;SDS011;12042;52.136;5.584;2023-02-15T20:22:53;77.00;;;41.15;;
23722;SDS011;12042;52.136;5.584;2023-02-15T20:25:20;69.10;;;39.53;;
23722;SDS011;12042;52.136;5.584;2023-02-15T20:27:53;75.05;;;40.47;;
23722;SDS011;12042;52.136;5.584;2023-02-15T20:30:22;71.93;;;40.15;;
23722;SDS011;12042;52.136;5.584;2023-02-15T20:32:52;72.22;;;40.75;;
23722;SDS011;12042;52.136;5.584;2023-02-15T20:35:20;74.85;;;40.20;;
23722;SDS011;12042;52.136;5.584;2023-02-15T20:37:48;70.03;;;39.97;;
23722;SDS011;12042;52.136;5.584;2023-02-15T20:40:30;74.35;;;41.28;;
23722;SDS011;12042;52.136;5.584;2023-02-15T20:42:57;70.15;;;40.15;;
23722;SDS011;12042;52.136;5.584;2023-02-15T20:45:24;79.65;;;41.50;;
23722;SDS011;12042;52.136;5.584;2023-02-15T20:47:51;73.85;;;41.10;;
23722;SDS011;12042;52.136;5.584;2023-02-15T20:50:21;77.07;;;41.15;;
23722;SDS011;12042;52.136;5.584;2023-02-15T20:52:53;73.20;;;40.08;;
23722;SDS011;12042;52.136;5.584;2023-02-15T20:55:21;76.13;;;40.85;;
23722;SDS011;12042;52.136;5.584;2023-02-15T20:57:51;68.50;;;39.05;;
23722;SDS011;12042;52.136;5.584;2023-02-15T21:00:18;74.88;;;40.88;;
23722;SDS011;12042;52.136;5.584;2023-02-15T21:02:46;74.97;;;40.03;;
23722;SDS011;12042;52.136;5.584;2023-02-15T21:05:21;73.43;;;40.60;;
23722;SDS011;12042;52.136;5.584;2023-02-15T21:07:51;69.65;;;39.55;;
23722;SDS011;12042;52.136;5.584;2023-02-15T21:10:21;72.53;;;39.33;;
23722;SDS011;12042;52.136;5.584;2023-02-15T21:12:48;70.72;;;39.95;;
23722;SDS011;12042;52.136;5.584;2023-02-15T21:15:34;72.90;;;39.92;;
23722;SDS011;12042;52.136;5.584;2023-02-15T21:18:02;72.75;;;40.42;;
23722;SDS011;12042;52.136;5.584;2023-02-15T21:20:30;72.55;;;39.72;;
23722;SDS011;12042;52.136;5.584;2023-02-15T21:22:57;72.75;;;40.35;;
23722;SDS011;12042;52.136;5.584;2023-02-15T21:25:28;70.55;;;39.45;;
23722;SDS011;12042;52.136;5.584;2023-02-15T21:27:58;69.97;;;40.03;;
23722;SDS011;12042;52.136;5.584;2023-02-15T21:30:24;71.18;;;39.90;;
23722;SDS011;12042;52.136;5.584;2023-02-15T21:32:50;66.85;;;38.83;;
23722;SDS011;12042;52.136;5.584;2023-02-15T21:35:17;71.22;;;40.13;;
23722;SDS011;12042;52.136;5.584;2023-02-15T21:37:43;65.68;;;38.47;;
23722;SDS011;12042;52.136;5.584;2023-02-15T21:42:37;70.20;;;39.53;;
23722;SDS011;12042;52.136;5.584;2023-02-15T21:45:21;71.20;;;38.67;;
23722;SDS011;12042;52.136;5.584;2023-02-15T21:48:05;74.95;;;40.72;;
23722;SDS011;12042;52.136;5.584;2023-02-15T21:50:31;74.15;;;39.60;;
23722;SDS011;12042;52.136;5.584;2023-02-15T21:53:23;72.85;;;40.35;;
